Time;durP1;ratioP1;P1;durP2;ratioP2;P2;SDS_P1;SDS_P2;PMS_P1;PMS_P2;Temp;Humidity;BMP_temperature;BMP_pressure;BME280_temperature;BME280_humidity;BME280_pressure;Samples;Min_cycle;Max_cycle;Signal;HPM_P1;HPM_P2
2022/08/24 00:00:15;;;;;;;5.50;3.80;;;;;;;18.49;99.61;100870.00;692138;28;1297;-40
2022/08/24 00:00:35;;;;;;;6.45;3.90;;;;;;;18.50;98.37;100871.75;692739;28;1611;-41
2022/08/24 00:00:56;;;;;;;7.07;4.00;;;;;;;18.55;98.56;100870.66;692150;28;4552;-40
2022/08/24 00:01:17;;;;;;;7.03;4.00;;;;;;;18.52;99.50;100880.50;692402;28;1269;-41
2022/08/24 00:01:39;;;;;;;6.33;4.00;;;;;;;18.45;99.08;100871.03;692831;28;1332;-40
2022/08/24 00:02:00;;;;;;;6.18;3.85;;;;;;;18.51;97.87;100874.34;689166;28;1283;-40
2022/08/24 00:02:20;;;;;;;7.10;4.20;;;;;;;18.58;97.68;100872.34;689672;28;1469;-41
2022/08/24 00:02:41;;;;;;;6.27;3.87;;;;;;;18.67;96.31;100879.09;689971;28;1437;-41
2022/08/24 00:03:02;;;;;;;5.10;3.55;;;;;;;18.70;96.46;100877.19;689899;28;1151;-45
2022/08/24 00:03:22;;;;;;;5.35;3.58;;;;;;;18.74;97.03;100875.31;690495;28;1152;-40
2022/08/24 00:03:45;;;;;;;5.78;3.80;;;;;;;18.68;98.37;100879.03;690412;28;4401;-41
2022/08/24 00:04:05;;;;;;;6.63;4.10;;;;;;;18.66;97.50;100880.00;691640;28;1306;-41
2022/08/24 00:04:26;;;;;;;6.28;4.10;;;;;;;18.68;97.92;100876.38;689585;28;1698;-41
2022/08/24 00:04:47;;;;;;;7.60;3.90;;;;;;;18.59;98.53;100882.00;689136;28;1359;-42
2022/08/24 00:05:08;;;;;;;7.45;4.20;;;;;;;18.55;98.70;100877.72;689334;28;1358;-41
2022/08/24 00:05:28;;;;;;;6.75;4.15;;;;;;;18.51;99.17;100878.75;690867;28;1341;-39
2022/08/24 00:05:49;;;;;;;6.32;3.95;;;;;;;18.50;98.66;100877.03;692358;28;1460;-40
2022/08/24 00:06:13;;;;;;;5.67;4.00;;;;;;;18.46;99.25;100881.56;692840;28;1301;-39
2022/08/24 00:06:33;;;;;;;5.95;4.10;;;;;;;18.41;99.73;100875.56;692085;28;1639;-44
2022/08/24 00:06:54;;;;;;;5.55;3.80;;;;;;;18.44;98.11;100879.88;691235;28;4939;-41
2022/08/24 00:07:18;;;;;;;5.75;3.90;;;;;;;18.45;98.21;100886.91;694517;28;1400;-41
2022/08/24 00:07:42;;;;;;;6.03;3.70;;;;;;;18.49;97.95;100885.91;695077;28;1474;-41
2022/08/24 00:08:03;;;;;;;5.97;3.80;;;;;;;18.57;96.67;100878.56;696844;28;2043;-40
2022/08/24 00:08:25;;;;;;;6.33;3.80;;;;;;;18.62;96.31;100881.03;695927;28;1181;-41
2022/08/24 00:08:47;;;;;;;6.35;3.80;;;;;;;18.65;97.36;100883.56;697176;28;957;-40
2022/08/24 00:09:07;;;;;;;6.55;4.13;;;;;;;18.56;98.77;100884.75;696499;28;1206;-41
2022/08/24 00:09:29;;;;;;;6.00;4.23;;;;;;;18.46;99.47;100878.06;696844;28;918;-42
2022/08/24 00:09:49;;;;;;;6.60;4.05;;;;;;;18.40;99.03;100881.78;695260;28;4662;-40
2022/08/24 00:10:12;;;;;;;7.53;4.13;;;;;;;18.36;99.81;100882.81;694159;28;1126;-41
2022/08/24 00:10:32;;;;;;;5.47;3.97;;;;;;;18.32;99.89;100882.03;693846;28;1126;-40
2022/08/24 00:10:53;;;;;;;5.47;3.80;;;;;;;18.31;100.00;100877.66;691499;28;912;-40
2022/08/24 00:11:13;;;;;;;5.95;3.78;;;;;;;18.27;99.66;100878.66;693351;28;1023;-40
2022/08/24 00:11:34;;;;;;;6.88;4.20;;;;;;;18.32;99.40;100879.38;694750;28;1075;-39
2022/08/24 00:11:54;;;;;;;6.47;3.90;;;;;;;18.35;98.83;100876.63;693506;28;1068;-40
2022/08/24 00:12:15;;;;;;;6.37;4.13;;;;;;;18.41;98.33;100877.34;693298;28;1047;-41
2022/08/24 00:12:36;;;;;;;6.53;3.90;;;;;;;18.42;98.33;100885.22;692544;28;1059;-43
2022/08/24 00:12:57;;;;;;;6.00;3.90;;;;;;;18.46;98.17;100878.06;690993;28;4721;-40
2022/08/24 00:13:19;;;;;;;5.85;3.85;;;;;;;18.43;99.60;100881.69;692299;28;974;-43
2022/08/24 00:13:39;;;;;;;5.97;3.83;;;;;;;18.32;100.00;100875.88;692911;28;1032;-40
2022/08/24 00:14:00;;;;;;;6.27;4.23;;;;;;;18.28;99.50;100877.75;693426;28;1122;-41
2022/08/24 00:14:20;;;;;;;6.43;3.92;;;;;;;18.34;99.11;100876.69;692357;28;907;-45
2022/08/24 00:14:41;;;;;;;6.47;4.38;;;;;;;18.38;99.02;100879.16;693815;28;1122;-41
2022/08/24 00:15:04;;;;;;;6.30;4.37;;;;;;;18.38;99.76;100883.59;692951;28;1409;-43
2022/08/24 00:15:25;;;;;;;6.53;4.07;;;;;;;18.33;100.00;100880.25;692812;28;1212;-41
2022/08/24 00:15:45;;;;;;;6.70;4.00;;;;;;;18.34;99.42;100880.19;691357;28;4352;-40
2022/08/24 00:16:08;;;;;;;6.53;3.97;;;;;;;18.35;99.56;100881.91;693903;28;1292;-43
2022/08/24 00:16:28;;;;;;;5.90;3.92;;;;;;;18.31;100.00;100877.66;693396;28;946;-41
2022/08/24 00:16:49;;;;;;;6.60;4.05;;;;;;;18.25;100.00;100869.94;693282;28;1068;-44
2022/08/24 00:17:10;;;;;;;6.63;3.63;;;;;;;18.34;98.27;100876.69;693557;28;1299;-43
2022/08/24 00:17:32;;;;;;;6.88;3.90;;;;;;;18.41;98.13;100890.59;693569;28;970;-42
2022/08/24 00:17:52;;;;;;;6.32;4.00;;;;;;;18.40;98.93;100880.91;691346;28;934;-40
2022/08/24 00:18:13;;;;;;;6.77;3.70;;;;;;;18.38;98.46;100876.53;691174;28;1094;-41
2022/08/24 00:18:34;;;;;;;6.13;3.70;;;;;;;18.37;98.92;100876.56;688191;28;1130;-42
2022/08/24 00:18:54;;;;;;;5.33;3.80;;;;;;;18.37;98.65;100873.94;687892;28;4381;-42
2022/08/24 00:19:15;;;;;;;6.57;4.03;;;;;;;18.34;99.91;100881.97;690012;28;969;-39
2022/08/24 00:19:36;;;;;;;6.63;4.00;;;;;;;18.30;99.79;100883.00;691419;28;1103;-42
2022/08/24 00:19:56;;;;;;;6.30;3.90;;;;;;;18.28;99.58;100882.19;693301;28;1085;-41
2022/08/24 00:20:16;;;;;;;6.00;3.85;;;;;;;18.34;98.16;100877.53;692919;28;1017;-41
2022/08/24 00:20:38;;;;;;;5.20;3.60;;;;;;;18.41;98.68;100885.28;693701;28;1118;-41
2022/08/24 00:20:59;;;;;;;5.28;3.67;;;;;;;18.45;98.08;100878.97;693383;28;895;-42
2022/08/24 00:21:19;;;;;;;6.05;3.75;;;;;;;18.44;98.90;100882.53;693515;28;1002;-43
2022/08/24 00:21:40;;;;;;;6.47;4.00;;;;;;;18.37;99.55;100877.47;693276;28;4392;-41
2022/08/24 00:22:00;;;;;;;6.07;3.75;;;;;;;18.35;99.18;100881.91;691603;28;1114;-41
2022/08/24 00:22:21;;;;;;;5.43;3.60;;;;;;;18.35;98.82;100879.28;694055;28;884;-40
2022/08/24 00:22:41;;;;;;;6.13;4.20;;;;;;;18.32;99.92;100874.09;693437;28;1051;-40
2022/08/24 00:23:03;;;;;;;6.00;4.18;;;;;;;18.30;100.00;100883.84;692608;28;1694;-41
2022/08/24 00:23:24;;;;;;;5.72;3.95;;;;;;;18.27;99.52;100881.31;693730;28;1432;-41
2022/08/24 00:23:45;;;;;;;5.95;3.92;;;;;;;18.34;98.62;100881.97;692963;28;912;-41
2022/08/24 00:24:05;;;;;;;5.68;3.70;;;;;;;18.34;98.99;100879.34;693142;28;1060;-43
2022/08/24 00:24:26;;;;;;;5.85;3.75;;;;;;;18.33;99.11;100881.13;695040;28;1244;-40
2022/08/24 00:24:46;;;;;;;5.50;3.73;;;;;;;18.38;97.50;100880.97;693087;28;4468;-41
2022/08/24 00:25:09;;;;;;;5.97;3.85;;;;;;;18.45;98.09;100877.19;693111;28;1265;-42
2022/08/24 00:25:30;;;;;;;6.40;3.97;;;;;;;18.41;98.72;100875.56;693043;28;981;-42
2022/08/24 00:25:50;;;;;;;7.37;4.27;;;;;;;18.38;98.70;100889.75;694141;28;1052;-41
2022/08/24 00:26:11;;;;;;;6.00;4.13;;;;;;;18.45;97.11;100881.63;693627;28;979;-41
2022/08/24 00:26:32;;;;;;;4.97;3.70;;;;;;;18.52;96.47;100883.13;693992;28;1083;-41
2022/08/24 00:26:53;;;;;;;6.20;3.78;;;;;;;18.55;96.38;100886.56;693547;28;1035;-41
2022/08/24 00:27:13;;;;;;;5.65;3.90;;;;;;;18.61;95.92;100874.88;692606;28;1052;-42
2022/08/24 00:27:35;;;;;;;5.90;3.90;;;;;;;18.64;96.26;100882.72;693523;28;950;-40
2022/08/24 00:27:57;;;;;;;5.57;3.63;;;;;;;18.55;97.40;100875.06;693309;28;4423;-41
2022/08/24 00:28:17;;;;;;;6.43;4.03;;;;;;;18.51;97.53;100878.75;693751;28;1070;-40
2022/08/24 00:28:37;;;;;;;5.72;3.95;;;;;;;18.47;97.71;100883.31;688935;28;1334;-42
2022/08/24 00:28:58;;;;;;;6.13;4.03;;;;;;;18.52;97.26;100883.13;689967;28;1135;-40
2022/08/24 00:29:20;;;;;;;6.25;3.92;;;;;;;18.50;97.39;100882.34;691165;28;975;-42
2022/08/24 00:29:41;;;;;;;5.85;3.70;;;;;;;18.54;96.32;100879.53;691972;28;1088;-41
2022/08/24 00:30:05;;;;;;;6.70;3.83;;;;;;;18.58;96.38;100875.00;688127;28;1134;-44
2022/08/24 00:30:26;;;;;;;4.82;3.78;;;;;;;18.53;98.17;100879.56;690442;28;1166;-41
2022/08/24 00:30:47;;;;;;;5.03;4.00;;;;;;;18.48;98.29;100878.88;692909;28;5040;-40
2022/08/24 00:31:07;;;;;;;5.30;3.87;;;;;;;18.45;98.24;100876.31;691881;28;1266;-39
2022/08/24 00:31:28;;;;;;;5.53;3.97;;;;;;;18.45;97.77;100881.63;690968;28;1218;-39
2022/08/24 00:31:48;;;;;;;7.75;4.00;;;;;;;18.44;98.28;100882.53;691387;28;1203;-41
2022/08/24 00:32:08;;;;;;;7.40;4.10;;;;;;;18.42;98.58;100874.66;693816;28;1207;-42
2022/08/24 00:32:29;;;;;;;5.90;3.90;;;;;;;18.37;99.30;100881.88;690303;28;1262;-41
2022/08/24 00:32:50;;;;;;;6.47;3.83;;;;;;;18.31;100.00;100876.78;687173;28;1202;-41
2022/08/24 00:33:11;;;;;;;6.05;3.70;;;;;;;18.26;100.00;100873.44;689651;28;1671;-40
2022/08/24 00:33:32;;;;;;;5.65;3.88;;;;;;;18.17;100.00;100871.97;687790;28;1097;-42
2022/08/24 00:33:53;;;;;;;6.10;3.97;;;;;;;18.09;100.00;100874.84;685159;28;4265;-40
2022/08/24 00:34:16;;;;;;;6.57;4.00;;;;;;;18.02;100.00;100879.47;688451;28;921;-39
2022/08/24 00:34:36;;;;;;;7.45;4.05;;;;;;;17.99;100.00;100876.94;691752;28;1319;-39
2022/08/24 00:34:57;;;;;;;7.45;4.15;;;;;;;17.94;100.00;100878.84;692742;28;1394;-41
2022/08/24 00:35:18;;;;;;;5.82;3.95;;;;;;;17.95;100.00;100880.59;690712;28;1240;-40
2022/08/24 00:35:39;;;;;;;6.03;3.85;;;;;;;17.99;100.00;100881.38;692061;28;1095;-40
2022/08/24 00:35:59;;;;;;;6.40;3.83;;;;;;;17.90;100.00;100874.53;692815;28;1919;-43
2022/08/24 00:36:20;;;;;;;6.00;4.00;;;;;;;17.84;100.00;100877.41;693407;28;951;-40
2022/08/24 00:36:41;;;;;;;5.60;4.03;;;;;;;17.85;100.00;100876.50;691598;28;4444;-40
2022/08/24 00:37:01;;;;;;;6.50;4.23;;;;;;;17.95;100.00;100880.59;692609;28;1242;-39
2022/08/24 00:37:22;;;;;;;6.03;4.07;;;;;;;18.01;100.00;100877.75;694030;28;1588;-40
2022/08/24 00:37:44;;;;;;;7.18;4.00;;;;;;;18.03;100.00;100873.28;693800;28;1149;-40
2022/08/24 00:38:04;;;;;;;6.75;4.05;;;;;;;18.10;99.15;100884.53;693011;28;1080;-41
2022/08/24 00:38:25;;;;;;;6.03;4.00;;;;;;;18.13;100.00;100878.28;693333;28;958;-40
2022/08/24 00:38:45;;;;;;;6.70;3.90;;;;;;;18.07;100.00;100874.06;693295;28;1202;-42
2022/08/24 00:39:06;;;;;;;7.10;4.28;;;;;;;18.01;100.00;100877.75;692806;28;1099;-44
2022/08/24 00:39:27;;;;;;;6.38;4.20;;;;;;;17.95;100.00;100880.59;692795;28;1085;-39
2022/08/24 00:39:47;;;;;;;6.15;3.92;;;;;;;17.90;100.00;100879.84;693021;28;4515;-41
2022/08/24 00:40:12;;;;;;;6.77;3.97;;;;;;;17.83;100.00;100875.66;691832;28;1469;-39
2022/08/24 00:40:37;;;;;;;7.63;4.03;;;;;;;17.81;100.00;100881.00;689483;28;1076;-39
2022/08/24 00:40:58;;;;;;;6.07;4.30;;;;;;;17.73;100.00;100884.81;687005;28;2485;-39
2022/08/24 00:41:18;;;;;;;5.15;3.80;;;;;;;17.69;100.00;100882.25;685230;28;1263;-39
2022/08/24 00:41:42;;;;;;;5.57;3.97;;;;;;;17.67;100.00;100889.34;685958;28;1132;-38
2022/08/24 00:42:03;;;;;;;6.10;4.00;;;;;;;17.68;100.00;100884.94;686579;28;1172;-39
2022/08/24 00:42:24;;;;;;;7.30;4.20;;;;;;;17.65;100.00;100888.56;689980;28;1233;-42
2022/08/24 00:42:44;;;;;;;6.03;4.45;;;;;;;17.62;100.00;100885.97;690402;28;4605;-41
2022/08/24 00:43:08;;;;;;;6.90;4.20;;;;;;;17.57;100.00;100887.91;690788;28;1000;-40
2022/08/24 00:43:28;;;;;;;6.88;4.10;;;;;;;17.55;100.00;100888.88;691741;28;1399;-40
2022/08/24 00:43:59;;;;;;;6.53;4.27;;;;;;;17.52;100.00;100887.19;693762;28;1564;-39
2022/08/24 00:44:20;;;;;;;6.50;4.13;;;;;;;17.51;100.00;100880.16;689267;28;1015;-43
2022/08/24 00:44:40;;;;;;;6.78;4.30;;;;;;;17.55;100.00;100886.22;690088;28;1076;-40
2022/08/24 00:45:01;;;;;;;6.68;4.30;;;;;;;17.62;100.00;100885.97;689870;28;1133;-41
2022/08/24 00:45:23;;;;;;;7.83;4.10;;;;;;;17.68;100.00;100879.63;687775;28;1364;-39
2022/08/24 00:45:50;;;;;;;6.90;3.90;;;;;;;17.72;100.00;100883.06;687378;28;4363;-42
2022/08/24 00:46:29;;;;;;;5.82;4.07;;;;;;;17.73;100.00;100880.38;689718;28;992;-40
2022/08/24 00:46:52;;;;;;;6.07;3.83;;;;;;;17.77;100.00;100882.00;690913;28;1054;-40
2022/08/24 00:47:19;;;;;;;5.72;3.80;;;;;;;17.81;100.00;100881.00;690257;28;1223;-39
2022/08/24 00:47:50;;;;;;;6.70;3.88;;;;;;;17.82;100.00;100881.84;691116;28;946;-43
2022/08/24 00:48:17;;;;;;;6.20;4.22;;;;;;;17.85;100.00;100879.13;692891;28;1016;-40
2022/08/24 00:48:41;;;;;;;6.15;4.18;;;;;;;17.90;100.00;100884.25;691489;28;1204;-40
2022/08/24 00:49:07;;;;;;;5.68;4.30;;;;;;;17.94;100.00;100883.28;693144;28;4909;-42
2022/08/24 00:49:38;;;;;;;5.75;3.95;;;;;;;17.94;100.00;100878.84;693170;28;943;-41
2022/08/24 00:50:02;;;;;;;5.60;4.13;;;;;;;18.03;100.00;100878.56;693465;28;1162;-40
2022/08/24 00:50:31;;;;;;;5.78;3.90;;;;;;;18.00;100.00;100888.41;693761;28;1456;-40
2022/08/24 00:50:59;;;;;;;5.72;4.28;;;;;;;17.96;100.00;100886.75;695637;28;1115;-41
2022/08/24 00:51:24;;;;;;;7.25;4.20;;;;;;;17.94;100.00;100880.63;695346;28;1047;-41
2022/08/24 00:51:53;;;;;;;7.25;4.30;;;;;;;17.89;100.00;100886.06;693131;28;5239;-41
2022/08/24 00:52:19;;;;;;;5.60;4.05;;;;;;;17.85;100.00;100885.28;689580;28;1007;-41
2022/08/24 00:52:48;;;;;;;6.30;3.85;;;;;;;17.91;100.00;100883.34;688451;28;954;-44
2022/08/24 00:53:17;;;;;;;7.90;4.22;;;;;;;17.96;100.00;100884.97;688046;28;1048;-40
2022/08/24 00:53:42;;;;;;;6.38;4.00;;;;;;;18.06;99.75;100890.81;689817;28;1253;-43
2022/08/24 00:54:14;;;;;;;6.35;3.90;;;;;;;17.95;100.00;100882.38;689762;28;1172;-40
2022/08/24 00:54:39;;;;;;;6.82;4.10;;;;;;;17.86;100.00;100883.47;692597;28;1139;-40
2022/08/24 00:55:06;;;;;;;5.45;3.97;;;;;;;17.86;100.00;100889.66;691628;28;4814;-42
2022/08/24 00:55:35;;;;;;;6.72;3.97;;;;;;;17.94;100.00;100888.56;690059;28;1346;-40
2022/08/24 00:56:00;;;;;;;5.75;3.92;;;;;;;17.89;100.00;100886.06;691553;28;1916;-41
2022/08/24 00:56:27;;;;;;;6.05;4.10;;;;;;;17.85;100.00;100895.84;692406;28;1174;-40
2022/08/24 00:56:53;;;;;;;6.35;3.85;;;;;;;17.83;100.00;100892.41;694231;28;4975;-41
2022/08/24 00:57:17;;;;;;;5.88;4.22;;;;;;;17.87;100.00;100887.88;691813;28;1371;-42
2022/08/24 00:57:44;;;;;;;6.30;4.10;;;;;;;17.89;100.00;100880.75;688126;28;2121;-40
2022/08/24 00:58:11;;;;;;;6.13;4.00;;;;;;;17.90;100.00;100892.19;685008;28;6423;-40
2022/08/24 00:58:36;;;;;;;6.13;4.13;;;;;;;17.87;100.00;100891.41;684199;28;1104;-41
2022/08/24 00:59:02;;;;;;;7.28;4.20;;;;;;;17.82;100.00;100889.78;682773;28;1000;-40
2022/08/24 00:59:28;;;;;;;6.32;3.95;;;;;;;17.83;100.00;100883.59;686645;28;1046;-40
2022/08/24 00:59:56;;;;;;;6.25;3.75;;;;;;;17.86;100.00;100891.41;690170;28;1094;-44
2022/08/24 01:00:20;;;;;;;5.45;3.65;;;;;;;17.77;100.00;100892.59;690746;28;2244;-40
2022/08/24 01:00:47;;;;;;;6.13;4.03;;;;;;;17.67;100.00;100884.06;689988;28;4585;-40
2022/08/24 01:01:10;;;;;;;6.72;4.07;;;;;;;17.60;100.00;100895.75;690494;28;1084;-38
2022/08/24 01:01:34;;;;;;;6.75;4.57;;;;;;;17.56;100.00;100890.63;686849;28;1235;-42
2022/08/24 01:01:57;;;;;;;6.13;4.18;;;;;;;17.60;100.00;100890.47;683584;28;1541;-43
2022/08/24 01:02:23;;;;;;;6.18;3.97;;;;;;;17.67;100.00;100889.34;687094;28;1331;-39
2022/08/24 01:02:50;;;;;;;5.53;4.07;;;;;;;17.67;100.00;100897.28;686547;28;1705;-40
2022/08/24 01:03:12;;;;;;;6.50;4.40;;;;;;;17.66;100.00;100892.91;686643;28;1275;-41
2022/08/24 01:03:36;;;;;;;5.43;4.05;;;;;;;17.68;100.00;100893.75;688935;28;1336;-40
2022/08/24 01:03:57;;;;;;;6.05;3.78;;;;;;;17.69;100.00;100895.47;689003;28;4350;-40
2022/08/24 01:04:27;;;;;;;6.70;4.20;;;;;;;17.72;100.00;100898.94;690607;28;1109;-40
2022/08/24 01:04:56;;;;;;;6.97;3.95;;;;;;;17.69;100.00;100895.47;688022;28;1353;-41
2022/08/24 01:05:16;;;;;;;6.35;4.05;;;;;;;17.69;100.00;100895.47;689312;28;1469;-40
2022/08/24 01:05:37;;;;;;;5.75;3.88;;;;;;;17.66;100.00;100895.56;689235;28;1246;-39
2022/08/24 01:05:58;;;;;;;6.25;4.20;;;;;;;17.63;100.00;100898.28;689766;28;1531;-40
2022/08/24 01:06:19;;;;;;;5.60;4.00;;;;;;;17.59;100.00;100898.44;689821;28;1334;-40
2022/08/24 01:06:40;;;;;;;5.60;4.10;;;;;;;17.59;100.00;100896.66;686702;28;4524;-39
2022/08/24 01:07:00;;;;;;;5.68;4.07;;;;;;;17.60;100.00;100900.16;686373;28;1396;-42
2022/08/24 01:07:24;;;;;;;6.27;3.93;;;;;;;17.61;100.00;100897.50;687936;28;1362;-40
2022/08/24 01:07:48;;;;;;;6.53;4.15;;;;;;;17.68;100.00;100898.13;686876;28;2258;-40
2022/08/24 01:08:10;;;;;;;5.90;4.07;;;;;;;17.70;100.00;100893.69;689023;28;1478;-39
2022/08/24 01:08:31;;;;;;;8.32;4.10;;;;;;;17.71;100.00;100892.78;692080;28;1428;-40
2022/08/24 01:08:51;;;;;;;5.87;4.00;;;;;;;17.70;100.00;100891.91;691242;28;1365;-42
2022/08/24 01:09:12;;;;;;;6.20;3.90;;;;;;;17.72;100.00;100898.94;687496;28;1358;-40
2022/08/24 01:09:33;;;;;;;5.75;3.72;;;;;;;17.78;100.00;100891.69;688076;28;1885;-39
2022/08/24 01:09:57;;;;;;;5.28;3.80;;;;;;;17.80;100.00;100897.75;687455;28;5012;-43
2022/08/24 01:10:23;;;;;;;5.88;3.97;;;;;;;17.80;100.00;100899.56;690888;28;1505;-40
2022/08/24 01:10:55;;;;;;;7.10;3.80;;;;;;;17.83;100.00;100894.16;689589;28;1265;-40
2022/08/24 01:11:22;;;;;;;6.75;4.10;;;;;;;17.84;100.00;100888.81;693550;28;1413;-39
2022/08/24 01:11:43;;;;;;;5.40;4.10;;;;;;;17.80;100.00;100886.34;688999;28;1397;-40
2022/08/24 01:12:04;;;;;;;6.18;4.07;;;;;;;17.78;100.00;100888.19;689353;28;3480;-41
2022/08/24 01:12:27;;;;;;;7.15;4.43;;;;;;;17.74;100.00;100895.31;689891;28;1251;-40
2022/08/24 01:12:51;;;;;;;6.20;4.10;;;;;;;17.78;100.00;100893.47;689133;28;4357;-40
2022/08/24 01:13:13;;;;;;;6.43;3.90;;;;;;;17.79;100.00;100889.88;687913;28;1422;-40
2022/08/24 01:13:34;;;;;;;6.78;4.07;;;;;;;17.75;100.00;100883.84;690686;28;1366;-40
2022/08/24 01:13:55;;;;;;;6.80;4.28;;;;;;;17.75;100.00;100897.06;689457;28;1354;-40
2022/08/24 01:14:20;;;;;;;5.82;4.22;;;;;;;17.76;100.00;100892.63;689085;28;1242;-40
2022/08/24 01:14:41;;;;;;;6.55;4.20;;;;;;;17.75;100.00;100893.53;690189;28;1222;-40
2022/08/24 01:15:05;;;;;;;5.45;4.00;;;;;;;17.76;100.00;100893.47;688093;28;1353;-40
2022/08/24 01:15:27;;;;;;;6.55;4.10;;;;;;;17.81;100.00;100890.72;687599;28;1281;-40
2022/08/24 01:15:51;;;;;;;8.13;3.90;;;;;;;17.85;100.00;100890.56;689070;28;4356;-40
2022/08/24 01:16:14;;;;;;;5.00;3.90;;;;;;;17.89;100.00;100891.34;691371;28;1393;-42
2022/08/24 01:18:51;;;;;;;6.20;3.72;;;;;;;17.75;100.00;100893.53;691445;28;1460;-41
2022/08/24 01:19:21;;;;;;;5.90;4.13;;;;;;;17.75;100.00;100888.25;688880;28;5224;-40
2022/08/24 01:19:45;;;;;;;6.75;4.10;;;;;;;17.84;100.00;100895.91;690285;28;1257;-44
2022/08/24 01:20:07;;;;;;;5.88;3.78;;;;;;;17.88;100.00;100895.75;689977;28;1168;-40
2022/08/24 01:20:28;;;;;;;6.05;4.00;;;;;;;17.83;100.00;100895.06;688862;28;1345;-40
2022/08/24 01:20:55;;;;;;;5.88;4.22;;;;;;;17.75;100.00;100890.91;689847;28;1526;-41
2022/08/24 01:21:23;;;;;;;5.70;4.00;;;;;;;17.72;100.00;100888.34;684598;28;1501;-40
2022/08/24 01:22:09;;;;;;;6.57;4.03;;;;;;;17.73;100.00;100900.66;687034;28;4375;-40
2022/08/24 01:22:53;;;;;;;5.78;3.97;;;;;;;17.79;100.00;100896.06;684895;28;1935;-40
2022/08/24 01:23:53;;;;;;;6.40;4.05;;;;;;;17.67;100.00;100901.72;688756;28;1426;-41
2022/08/24 01:24:13;;;;;;;6.03;4.10;;;;;;;17.57;100.00;100898.50;677832;28;1396;-42
2022/08/24 01:24:35;;;;;;;6.68;4.05;;;;;;;17.53;100.00;100896.84;679132;29;1570;-40
2022/08/24 01:24:55;;;;;;;5.80;3.72;;;;;;;17.60;100.00;100901.03;674903;29;4651;-40
2022/08/24 01:25:16;;;;;;;5.30;3.80;;;;;;;17.65;100.00;100899.13;676404;29;995;-41
2022/08/24 01:25:40;;;;;;;5.80;3.97;;;;;;;17.65;100.00;100896.50;676295;29;1764;-40
2022/08/24 01:26:01;;;;;;;6.60;4.20;;;;;;;17.62;100.00;100898.34;676776;29;1256;-41
2022/08/24 01:26:31;;;;;;;6.20;4.10;;;;;;;17.61;100.00;100897.50;677318;29;1241;-40
2022/08/24 01:26:51;;;;;;;5.63;4.07;;;;;;;17.60;100.00;100898.41;681489;28;1371;-42
2022/08/24 01:27:14;;;;;;;6.00;4.40;;;;;;;17.58;100.00;100894.06;689741;28;1588;-40
2022/08/24 01:27:36;;;;;;;5.88;4.10;;;;;;;17.56;100.00;100891.47;689864;28;1469;-44
2022/08/24 01:28:03;;;;;;;6.60;4.10;;;;;;;17.55;100.00;100895.00;688100;28;4601;-41
2022/08/24 01:28:23;;;;;;;5.78;4.20;;;;;;;17.58;100.00;100896.72;688550;28;1179;-40
2022/08/24 01:28:47;;;;;;;5.80;4.15;;;;;;;17.59;100.00;100893.16;683546;28;1205;-41
2022/08/24 01:29:18;;;;;;;6.07;3.83;;;;;;;17.72;100.00;100896.28;681113;28;1284;-41
2022/08/24 01:29:40;;;;;;;5.00;3.75;;;;;;;17.76;100.00;100890.84;684056;28;1302;-43
2022/08/24 01:30:05;;;;;;;5.85;4.00;;;;;;;17.82;100.00;100889.78;682636;28;1203;-40
2022/08/24 01:30:27;;;;;;;5.43;3.97;;;;;;;17.85;100.00;100889.72;684371;28;1319;-44
2022/08/24 01:30:47;;;;;;;5.28;3.72;;;;;;;17.85;100.00;100890.56;684313;28;4423;-42
2022/08/24 01:31:08;;;;;;;6.53;3.77;;;;;;;17.90;100.00;100893.06;685692;28;1331;-40
2022/08/24 01:31:28;;;;;;;6.57;3.97;;;;;;;17.97;100.00;100894.66;685759;28;1343;-40
2022/08/24 01:31:49;;;;;;;6.40;4.22;;;;;;;17.91;100.00;100894.81;684179;28;1386;-41
2022/08/24 01:32:12;;;;;;;6.45;3.83;;;;;;;17.80;100.00;100894.28;683538;28;1571;-40
2022/08/24 01:32:32;;;;;;;6.45;4.18;;;;;;;17.73;100.00;100901.53;687020;28;1386;-40
2022/08/24 01:32:59;;;;;;;6.10;4.37;;;;;;;17.67;100.00;100904.38;692348;28;1397;-40
2022/08/24 01:33:26;;;;;;;6.28;4.38;;;;;;;17.56;100.00;100895.91;693178;28;1297;-42
2022/08/24 01:33:49;;;;;;;7.47;4.38;;;;;;;17.59;100.00;100901.94;693601;28;4480;-40
2022/08/24 01:34:11;;;;;;;5.47;4.10;;;;;;;17.64;100.00;100899.16;693281;28;1437;-40
2022/08/24 01:34:32;;;;;;;5.65;3.95;;;;;;;17.71;100.00;100898.06;693293;28;1509;-40
2022/08/24 01:34:53;;;;;;;5.17;3.57;;;;;;;17.76;100.00;100895.28;688832;28;1386;-40
2022/08/24 01:35:14;;;;;;;5.25;3.70;;;;;;;17.84;100.00;100893.25;685314;28;1449;-41
2022/08/24 01:35:37;;;;;;;5.20;3.90;;;;;;;17.85;100.00;100892.34;685839;28;1171;-41
2022/08/24 01:36:08;;;;;;;5.68;4.10;;;;;;;17.74;100.00;100894.47;685853;28;1997;-40
2022/08/24 01:36:36;;;;;;;6.88;4.43;;;;;;;17.61;100.00;100896.59;688198;28;1426;-40
2022/08/24 01:36:56;;;;;;;6.85;4.22;;;;;;;17.54;100.00;100898.56;690393;28;4381;-40
2022/08/24 01:37:17;;;;;;;6.47;4.13;;;;;;;17.53;100.00;100900.34;694819;28;1540;-39
2022/08/24 01:37:37;;;;;;;6.63;3.95;;;;;;;17.50;100.00;100897.81;691090;28;1200;-43
2022/08/24 01:38:01;;;;;;;7.07;4.00;;;;;;;17.49;100.00;100900.50;690861;28;861;-42
2022/08/24 01:38:21;;;;;;;6.28;4.20;;;;;;;17.52;100.00;100898.63;691006;28;1386;-47
2022/08/24 01:38:41;;;;;;;5.93;4.22;;;;;;;17.53;100.00;100892.44;688852;28;1482;-40
2022/08/24 01:39:12;;;;;;;6.00;4.20;;;;;;;17.57;100.00;100890.56;685674;28;1101;-39
2022/08/24 01:39:36;;;;;;;8.05;4.30;;;;;;;17.64;100.00;100897.38;686369;28;1188;-41
2022/08/24 01:39:59;;;;;;;11.07;4.07;;;;;;;17.57;100.00;100898.50;687056;28;4534;-40
2022/08/24 01:40:28;;;;;;;6.47;4.18;;;;;;;17.50;100.00;100895.16;687808;28;1358;-40
2022/08/24 01:40:53;;;;;;;6.30;4.20;;;;;;;17.51;100.00;100896.03;691106;28;1259;-40
2022/08/24 01:41:14;;;;;;;6.55;4.15;;;;;;;17.55;100.00;100902.94;692624;28;1346;-40
2022/08/24 01:41:35;;;;;;;5.67;3.90;;;;;;;17.55;100.00;100902.94;691310;28;1222;-40
2022/08/24 01:41:56;;;;;;;8.00;4.30;;;;;;;17.56;100.00;100903.84;691002;28;1331;-41
2022/08/24 01:42:17;;;;;;;7.03;4.30;;;;;;;17.54;100.00;100901.22;690656;28;1179;-40
2022/08/24 01:42:37;;;;;;;7.15;4.22;;;;;;;17.48;100.00;100898.75;688537;28;1211;-46
2022/08/24 01:42:57;;;;;;;5.80;4.10;;;;;;;17.42;100.00;100906.84;687081;28;4963;-40
2022/08/24 01:43:18;;;;;;;6.40;4.30;;;;;;;17.42;100.00;100906.84;683744;28;1489;-41
2022/08/24 01:43:39;;;;;;;6.78;4.47;;;;;;;17.40;100.00;100909.53;686001;28;1273;-39
2022/08/24 01:44:01;;;;;;;7.47;4.60;;;;;;;17.36;100.00;100908.78;684206;28;1452;-39
2022/08/24 01:44:24;;;;;;;5.80;4.22;;;;;;;17.43;100.00;100901.56;686095;28;1327;-40
2022/08/24 01:44:46;;;;;;;5.53;4.15;;;;;;;17.45;100.00;100909.44;685626;28;1619;-39
2022/08/24 01:45:07;;;;;;;5.80;4.18;;;;;;;17.48;100.00;100909.34;685308;28;1413;-40
2022/08/24 01:45:29;;;;;;;5.28;4.40;;;;;;;17.43;100.00;100908.59;687885;28;1751;-41
2022/08/24 01:45:50;;;;;;;7.55;4.55;;;;;;;17.34;100.00;100902.66;687079;28;4429;-39
2022/08/24 01:46:10;;;;;;;7.47;4.43;;;;;;;17.33;100.00;100908.88;686207;28;1588;-41
2022/08/24 01:46:31;;;;;;;6.87;4.37;;;;;;;17.41;100.00;100910.44;687850;28;1175;-41
2022/08/24 01:46:53;;;;;;;5.32;3.90;;;;;;;17.41;100.00;100907.78;687449;28;1274;-41
2022/08/24 01:47:15;;;;;;;5.95;4.13;;;;;;;17.46;100.00;100908.50;689397;28;1677;-40
2022/08/24 01:47:36;;;;;;;6.63;4.45;;;;;;;17.40;100.00;100903.41;688771;28;1242;-40
2022/08/24 01:47:58;;;;;;;6.22;4.25;;;;;;;17.36;100.00;100900.88;687105;28;1367;-39
2022/08/24 01:48:19;;;;;;;7.43;4.40;;;;;;;17.36;100.00;100902.63;685660;28;1346;-40
2022/08/24 01:48:39;;;;;;;5.88;4.18;;;;;;;17.38;100.00;100902.56;682290;28;4439;-40
2022/08/24 01:49:00;;;;;;;5.87;4.33;;;;;;;17.42;100.00;100906.84;685181;28;1396;-42
2022/08/24 01:49:27;;;;;;;5.45;4.30;;;;;;;17.41;100.00;100898.06;685270;28;1530;-41
2022/08/24 01:49:48;;;;;;;5.80;4.32;;;;;;;17.45;100.00;100902.34;687906;28;1518;-41
2022/08/24 01:50:12;;;;;;;6.07;4.35;;;;;;;17.42;100.00;100902.47;684095;28;1508;-45
2022/08/24 01:50:33;;;;;;;5.88;4.47;;;;;;;17.41;100.00;100899.88;684025;28;1268;-40